createdAt,value
2018-06-14T00:00:57.929Z,99132.08
2018-06-14T00:03:27.958Z,99129.55
2018-06-14T00:06:01.269Z,99120.80
2018-06-14T00:08:30.985Z,99121.64
2018-06-14T00:11:00.307Z,99130.14
2018-06-14T00:13:30.195Z,99125.81
2018-06-14T00:16:02.812Z,99123.73
2018-06-14T00:18:32.143Z,99118.39
2018-06-14T00:21:01.445Z,99113.99
2018-06-14T00:23:31.083Z,99115.20
2018-06-14T00:26:00.403Z,99117.98
2018-06-14T00:28:29.715Z,99120.70
2018-06-14T00:30:59.024Z,99112.93
2018-06-14T00:33:29.372Z,99111.47
2018-06-14T00:35:59.023Z,99104.68
2018-06-14T00:38:29.330Z,99106.63
2018-06-14T00:40:58.991Z,99108.09
2018-06-14T00:43:28.320Z,99102.42
2018-06-14T00:45:58.008Z,99110.03
2018-06-14T00:48:27.296Z,99112.58
2018-06-14T00:50:57.157Z,99116.58
2018-06-14T00:53:26.764Z,99113.30
2018-06-14T00:55:57.837Z,99113.56
2018-06-14T00:58:27.617Z,99119.24
2018-06-14T01:00:56.927Z,99122.65
2018-06-14T01:03:26.672Z,99126.77
2018-06-14T01:05:55.988Z,99124.13
2018-06-14T01:08:25.742Z,99119.66
2018-06-14T01:10:55.083Z,99112.03
2018-06-14T01:13:24.394Z,99116.63
2018-06-14T01:15:53.743Z,99110.34
2018-06-14T01:18:23.053Z,99114.95
2018-06-14T01:20:52.438Z,99119.41
2018-06-14T01:23:21.736Z,99114.67
2018-06-14T01:25:51.144Z,99116.45
2018-06-14T01:28:21.065Z,99115.61
2018-06-14T01:30:50.837Z,99124.92
2018-06-14T01:33:20.152Z,99116.72
2018-06-14T01:35:49.463Z,99113.91
2018-06-14T01:38:26.800Z,99116.67
2018-06-14T01:40:56.763Z,99117.67
2018-06-14T01:43:26.072Z,99116.30
2018-06-14T01:45:55.406Z,99117.03
2018-06-14T01:48:24.735Z,99115.45
2018-06-14T01:50:54.634Z,99118.82
2018-06-14T01:53:23.944Z,99125.19
2018-06-14T01:55:53.344Z,99120.03
2018-06-14T01:58:22.910Z,99126.19
2018-06-14T02:00:52.555Z,99117.20
2018-06-14T02:03:22.244Z,99116.36
2018-06-14T02:05:51.548Z,99120.83
2018-06-14T02:08:21.663Z,99125.59
2018-06-14T02:10:51.464Z,99122.09
2018-06-14T02:13:20.792Z,99125.17
2018-06-14T02:15:50.119Z,99123.19
2018-06-14T02:18:19.474Z,99118.18
2018-06-14T02:20:48.808Z,99121.61
2018-06-14T02:23:18.359Z,99125.29
2018-06-14T02:25:47.689Z,99117.59
2018-06-14T02:28:17.008Z,99117.02
2018-06-14T02:30:46.402Z,99114.77
2018-06-14T02:33:15.739Z,99125.09
2018-06-14T02:35:45.113Z,99125.30
2018-06-14T02:38:14.405Z,99122.91
2018-06-14T02:40:43.776Z,99135.34
2018-06-14T02:43:13.768Z,99132.02
2018-06-14T02:45:43.389Z,99132.91
2018-06-14T02:48:12.825Z,99132.67
2018-06-14T02:50:42.502Z,99130.28
2018-06-14T02:53:12.188Z,99138.94
2018-06-14T02:55:41.595Z,99138.22
2018-06-14T02:58:11.138Z,99136.84
2018-06-14T03:00:40.461Z,99135.92
2018-06-14T03:03:10.011Z,99132.50
2018-06-14T03:05:41.151Z,99133.34
2018-06-14T03:08:10.446Z,99128.59
2018-06-14T03:10:39.766Z,99128.58
2018-06-14T03:13:09.348Z,99135.71
2018-06-14T03:15:39.479Z,99129.08
2018-06-14T03:18:08.765Z,99124.53
2018-06-14T03:20:38.474Z,99128.34
2018-06-14T03:23:07.809Z,99126.05
2018-06-14T03:25:37.978Z,99127.27
2018-06-14T03:28:07.321Z,99121.84
2018-06-14T03:30:36.692Z,99116.75
2018-06-14T03:33:06.055Z,99124.63
2018-06-14T03:35:35.618Z,99124.88
2018-06-14T03:38:04.957Z,99116.25
2018-06-14T03:40:34.316Z,99113.91
2018-06-14T03:43:03.679Z,99109.98
2018-06-14T03:45:33.355Z,99111.64
2018-06-14T03:48:02.657Z,99108.62
2018-06-14T03:50:32.324Z,99111.28
2018-06-14T03:53:01.648Z,99122.38
2018-06-14T03:55:31.603Z,99129.19
2018-06-14T03:58:00.874Z,99121.41
2018-06-14T04:00:30.533Z,99116.81
2018-06-14T04:03:00.845Z,99115.27
2018-06-14T04:05:31.227Z,99121.00
2018-06-14T04:08:00.556Z,99119.59
2018-06-14T04:10:30.313Z,99121.77
2018-06-14T04:12:59.640Z,99122.61
2018-06-14T04:15:29.288Z,99122.50
2018-06-14T04:18:04.668Z,99122.69
2018-06-14T04:20:35.191Z,99122.46
2018-06-14T04:23:04.458Z,99120.80
2018-06-14T04:25:34.824Z,99122.02
2018-06-14T04:28:04.753Z,99117.42
2018-06-14T04:30:34.915Z,99130.63
2018-06-14T04:33:04.608Z,99129.62
2018-06-14T04:35:33.921Z,99128.84
2018-06-14T04:38:03.270Z,99129.08
2018-06-14T04:40:32.622Z,99136.81
2018-06-14T04:43:02.408Z,99125.78
2018-06-14T04:45:31.710Z,99136.30
2018-06-14T04:48:03.880Z,99131.40
2018-06-14T04:50:33.255Z,99138.41
2018-06-14T04:53:02.591Z,99134.66
2018-06-14T04:55:32.264Z,99125.00
2018-06-14T04:58:02.169Z,99130.25
2018-06-14T05:00:32.005Z,99134.84
2018-06-14T05:03:01.785Z,99133.20
2018-06-14T05:05:31.497Z,99139.55
2018-06-14T05:08:00.829Z,99137.42
2018-06-14T05:10:30.383Z,99138.64
2018-06-14T05:12:59.713Z,99139.36
2018-06-14T05:15:29.100Z,99136.72
2018-06-14T05:17:58.855Z,99137.13
2018-06-14T05:20:28.533Z,99141.29
2018-06-14T05:22:58.324Z,99139.54
2018-06-14T05:25:28.118Z,99139.55
2018-06-14T05:27:58.318Z,99143.47
2018-06-14T05:30:27.621Z,99142.17
2018-06-14T05:32:57.521Z,99144.59
2018-06-14T05:35:27.369Z,99148.34
2018-06-14T05:37:57.053Z,99151.84
2018-06-14T05:40:26.420Z,99148.30
2018-06-14T05:42:55.757Z,99144.27
2018-06-14T05:45:25.409Z,99137.01
2018-06-14T05:47:54.795Z,99144.05
2018-06-14T05:50:24.554Z,99138.34
2018-06-14T05:52:54.450Z,99131.14
2018-06-14T05:55:24.233Z,99141.09
2018-06-14T05:57:53.929Z,99137.59
2018-06-14T06:00:23.341Z,99138.22
2018-06-14T06:02:52.847Z,99136.29
2018-06-14T06:05:22.505Z,99134.14
2018-06-14T06:07:52.261Z,99138.48
2018-06-14T06:10:21.898Z,99141.16
2018-06-14T06:12:51.635Z,99137.27
2018-06-14T06:15:21.260Z,99133.04
2018-06-14T06:17:51.892Z,99129.41
2018-06-14T06:20:21.233Z,99129.53
2018-06-14T06:22:51.187Z,99132.31
2018-06-14T06:25:21.136Z,99130.95
2018-06-14T06:27:50.732Z,99127.48
2018-06-14T06:30:20.423Z,99119.97
2018-06-14T06:32:49.773Z,99121.39
2018-06-14T06:35:19.100Z,99121.62
2018-06-14T06:37:48.672Z,99111.97
2018-06-14T06:40:18.670Z,99122.99
2018-06-14T06:42:47.978Z,99119.91
2018-06-14T06:45:17.549Z,99124.53
2018-06-14T06:47:46.871Z,99116.80
2018-06-14T06:50:16.580Z,99116.63
2018-06-14T06:52:45.928Z,99106.16
2018-06-14T06:55:15.591Z,99105.56
2018-06-14T06:57:45.311Z,99110.78
2018-06-14T07:00:15.283Z,99104.23
2018-06-14T07:02:46.059Z,99105.50
2018-06-14T07:05:15.401Z,99105.23
2018-06-14T07:07:45.018Z,99108.30
2018-06-14T07:10:14.325Z,99103.34
2018-06-14T07:12:44.045Z,99105.88
2018-06-14T07:15:13.828Z,99107.33
2018-06-14T07:17:43.286Z,99107.40
2018-06-14T07:20:12.974Z,99111.58
2018-06-14T07:22:42.754Z,99107.60
2018-06-14T07:25:12.067Z,99108.70
2018-06-14T07:27:41.424Z,99102.34
2018-06-14T07:30:10.729Z,99098.44
2018-06-14T07:32:40.070Z,99094.47
2018-06-14T07:35:10.692Z,99100.69
2018-06-14T07:37:40.027Z,99098.40
2018-06-14T07:40:09.363Z,99094.34
2018-06-14T07:42:38.973Z,99094.53
2018-06-14T07:45:08.363Z,99095.66
2018-06-14T07:47:38.382Z,99095.87
2018-06-14T07:50:07.706Z,99097.33
2018-06-14T07:52:37.056Z,99092.14
2018-06-14T07:55:06.353Z,99095.39
2018-06-14T07:57:35.685Z,99092.92
2018-06-14T08:00:05.837Z,99096.73
2018-06-14T08:02:35.384Z,99093.85
2018-06-14T08:05:05.391Z,99096.58
2018-06-14T08:07:34.754Z,99094.40
2018-06-14T08:10:04.108Z,99103.36
2018-06-14T08:12:34.891Z,99099.38
2018-06-14T08:15:04.398Z,99099.30
2018-06-14T08:17:34.185Z,99099.83
2018-06-14T08:20:04.099Z,99090.31
2018-06-14T08:22:33.448Z,99090.96
2018-06-14T08:25:03.612Z,99092.98
2018-06-14T08:27:32.937Z,99085.11
2018-06-14T08:30:02.243Z,99080.96
2018-06-14T08:32:31.668Z,99081.11
2018-06-14T08:35:01.324Z,99083.61
2018-06-14T08:37:31.256Z,99079.77
2018-06-14T08:40:00.599Z,99089.19
2018-06-14T08:42:29.965Z,99086.28
2018-06-14T08:44:59.298Z,99084.98
2018-06-14T08:47:28.624Z,99087.05
2018-06-14T08:49:57.969Z,99089.29
2018-06-14T08:52:27.337Z,99079.81
2018-06-14T08:54:57.513Z,99083.03
2018-06-14T08:57:27.099Z,99087.37
2018-06-14T08:59:56.452Z,99081.59
2018-06-14T09:02:25.748Z,99088.06
2018-06-14T09:04:55.475Z,99083.44
2018-06-14T09:07:24.872Z,99084.62
2018-06-14T09:09:54.242Z,99086.12
2018-06-14T09:12:23.616Z,99088.89
2018-06-14T09:14:53.696Z,99088.70
2018-06-14T09:17:23.019Z,99086.81
2018-06-14T09:19:52.341Z,99086.87
2018-06-14T09:22:22.003Z,99089.19
2018-06-14T09:24:51.683Z,99093.06
2018-06-14T09:27:21.017Z,99094.73
2018-06-14T09:29:50.405Z,99085.37
2018-06-14T09:32:19.700Z,99100.25
2018-06-14T09:34:49.051Z,99091.23
2018-06-14T09:37:18.872Z,99087.16
2018-06-14T09:39:48.202Z,99082.51
2018-06-14T09:42:17.722Z,99087.16
2018-06-14T09:44:47.355Z,99078.91
2018-06-14T09:47:17.127Z,99085.00
2018-06-14T09:49:46.922Z,99080.33
2018-06-14T09:52:16.256Z,99076.42
2018-06-14T09:54:45.838Z,99079.09
2018-06-14T09:57:15.417Z,99079.73
2018-06-14T09:59:44.776Z,99084.64
2018-06-14T10:02:14.201Z,99080.08
2018-06-14T10:04:44.117Z,99077.58
2018-06-14T10:07:13.423Z,99078.84
2018-06-14T10:09:42.756Z,99082.34
2018-06-14T10:12:12.099Z,99079.16
2018-06-14T10:14:41.454Z,99079.32
2018-06-14T10:17:11.834Z,99075.41
2018-06-14T10:19:41.166Z,99075.06
2018-06-14T10:22:10.721Z,99072.89
2018-06-14T10:24:40.069Z,99069.64
2018-06-14T10:27:09.826Z,99065.42
2018-06-14T10:29:39.144Z,99074.08
2018-06-14T10:32:08.887Z,99065.08
2018-06-14T10:34:38.326Z,99069.83
2018-06-14T10:37:07.629Z,99065.58
2018-06-14T10:39:37.085Z,99060.38
2018-06-14T10:42:06.374Z,99064.02
2018-06-14T10:44:35.943Z,99052.77
2018-06-14T10:47:05.567Z,99050.38
2018-06-14T10:49:34.986Z,99062.06
2018-06-14T10:52:06.381Z,99062.43
2018-06-14T10:54:35.745Z,99062.64
2018-06-14T10:57:05.332Z,99068.27
2018-06-14T10:59:34.694Z,99060.13
2018-06-14T11:02:04.068Z,99065.58
2018-06-14T11:04:33.422Z,99071.32
2018-06-14T11:07:02.733Z,99061.38
2018-06-14T11:09:32.081Z,99064.52
2018-06-14T11:12:01.391Z,99063.95
2018-06-14T11:14:31.115Z,99061.21
2018-06-14T11:17:02.568Z,99070.78
2018-06-14T11:19:32.236Z,99053.32
2018-06-14T11:22:02.161Z,99050.41
2018-06-14T11:24:31.490Z,99046.25
2018-06-14T11:27:01.163Z,99033.27
2018-06-14T11:29:30.528Z,99036.73
2018-06-14T11:31:59.836Z,99035.92
2018-06-14T11:34:29.182Z,99026.50
2018-06-14T11:36:58.884Z,99022.64
2018-06-14T11:39:28.565Z,99019.75
2018-06-14T11:41:57.919Z,99019.16
2018-06-14T11:44:27.352Z,99021.64
2018-06-14T11:46:56.656Z,99011.94
2018-06-14T11:49:26.364Z,98998.91
2018-06-14T11:51:55.688Z,99001.89
2018-06-14T11:54:25.358Z,98998.77
2018-06-14T11:56:55.421Z,99000.59
2018-06-14T11:59:25.277Z,98994.08
2018-06-14T12:01:54.690Z,99000.21
2018-06-14T12:04:24.042Z,98994.53
2018-06-14T12:06:53.749Z,98993.83
2018-06-14T12:09:23.437Z,98983.04
2018-06-14T12:11:53.036Z,98971.48
2018-06-14T12:14:22.966Z,98978.34
2018-06-14T12:16:52.559Z,98978.14
2018-06-14T12:19:21.899Z,98983.17
2018-06-14T12:21:51.704Z,98974.99
2018-06-14T12:24:21.047Z,98987.97
2018-06-14T12:26:50.911Z,98976.88
2018-06-14T12:29:20.726Z,98984.41
2018-06-14T12:31:50.254Z,98972.56
2018-06-14T12:34:19.677Z,98971.97
2018-06-14T12:36:49.018Z,98971.42
2018-06-14T12:39:18.404Z,98969.31
2018-06-14T12:41:47.721Z,98966.47
2018-06-14T12:44:17.076Z,98965.43
2018-06-14T12:46:46.374Z,98956.32
2018-06-14T12:49:15.719Z,98962.89
2018-06-14T12:51:45.361Z,98954.05
2018-06-14T12:54:14.665Z,98954.33
2018-06-14T12:56:43.996Z,98952.72
2018-06-14T12:59:13.329Z,98950.89
2018-06-14T13:01:42.685Z,98943.70
2018-06-14T13:04:12.502Z,98950.87
2018-06-14T13:06:41.833Z,98933.86
2018-06-14T13:09:12.881Z,98936.84
2018-06-14T13:11:42.544Z,98934.37
2018-06-14T13:14:12.285Z,98931.16
2018-06-14T13:16:42.040Z,98930.80
2018-06-14T13:19:11.366Z,98924.67
2018-06-14T13:21:41.046Z,98928.81
2018-06-14T13:24:10.345Z,98918.08
2018-06-14T13:26:40.512Z,98917.86
2018-06-14T13:29:09.826Z,98920.50
2018-06-14T13:31:39.618Z,98925.78
2018-06-14T13:34:09.675Z,98914.64
2018-06-14T13:36:40.008Z,98919.59
2018-06-14T13:39:09.615Z,98929.47
2018-06-14T13:41:38.965Z,98919.30
2018-06-14T13:44:08.269Z,98915.60
2018-06-14T13:46:40.733Z,98921.19
2018-06-14T13:49:10.627Z,98922.34
2018-06-14T13:51:40.831Z,98916.97
2018-06-14T13:54:10.694Z,98917.95
2018-06-14T13:56:40.563Z,98925.47
2018-06-14T13:59:09.874Z,98924.55
2018-06-14T14:01:39.242Z,98920.34
2018-06-14T14:04:08.969Z,98913.88
2018-06-14T14:06:38.710Z,98906.97
2018-06-14T14:09:10.472Z,98910.48
2018-06-14T14:11:40.169Z,98902.88
2018-06-14T14:14:09.835Z,98897.63
2018-06-14T14:16:39.577Z,98902.69
2018-06-14T14:19:09.264Z,98898.31
2018-06-14T14:21:38.897Z,98888.52
2018-06-14T14:24:08.237Z,98895.13
2018-06-14T14:26:37.586Z,98898.09
2018-06-14T14:29:07.165Z,98897.19
2018-06-14T14:31:36.816Z,98893.55
2018-06-14T14:34:06.519Z,98887.46
2018-06-14T14:36:35.860Z,98890.75
2018-06-14T14:39:08.048Z,98891.65
2018-06-14T14:41:37.493Z,98889.27
2018-06-14T14:44:06.905Z,98894.67
2018-06-14T14:46:36.792Z,98896.34
2018-06-14T14:49:06.739Z,98880.13
2018-06-14T14:51:36.346Z,98887.59
2018-06-14T14:54:05.701Z,98891.94
2018-06-14T14:56:35.958Z,98890.27
2018-06-14T14:59:05.338Z,98886.87
2018-06-14T15:01:34.919Z,98893.00
2018-06-14T15:04:05.444Z,98888.61
2018-06-14T15:06:35.261Z,98885.67
2018-06-14T15:09:06.888Z,98882.93
2018-06-14T15:11:36.467Z,98887.50
2018-06-14T15:14:06.894Z,98883.61
2018-06-14T15:16:38.375Z,98890.02
2018-06-14T15:19:07.940Z,98882.08
2018-06-14T15:21:37.303Z,98880.48
2018-06-14T15:24:06.916Z,98886.06
2018-06-14T15:26:36.555Z,98888.76
2018-06-14T15:29:06.260Z,98877.92
2018-06-14T15:31:35.604Z,98879.59
2018-06-14T15:34:04.985Z,98894.42
2018-06-14T15:36:34.334Z,98887.59
2018-06-14T15:39:03.781Z,98880.13
2018-06-14T15:41:33.744Z,98881.86
2018-06-14T15:44:03.045Z,98874.39
2018-06-14T15:46:32.752Z,98869.18
2018-06-14T15:49:02.538Z,98871.61
2018-06-14T15:51:32.108Z,98872.49
2018-06-14T15:54:01.409Z,98867.80
2018-06-14T15:56:38.255Z,98877.75
2018-06-14T15:59:10.646Z,98877.67
2018-06-14T16:01:40.398Z,98869.81
2018-06-14T16:04:09.969Z,98867.86
2018-06-14T16:06:39.327Z,98865.91
2018-06-14T16:09:10.002Z,98867.59
2018-06-14T16:11:39.723Z,98867.16
2018-06-14T16:14:09.024Z,98870.42
2018-06-14T16:16:39.102Z,98863.44
2018-06-14T16:19:08.505Z,98861.42
2018-06-14T16:21:37.843Z,98858.90
2018-06-14T16:24:07.145Z,98855.61
2018-06-14T16:26:36.476Z,98856.83
2018-06-14T16:29:06.104Z,98862.34
2018-06-14T16:31:35.420Z,98861.47
2018-06-14T16:34:05.589Z,98863.67
2018-06-14T16:36:34.904Z,98863.13
2018-06-14T16:39:06.647Z,98865.62
2018-06-14T16:41:35.990Z,98867.33
2018-06-14T16:44:05.313Z,98872.00
2018-06-14T16:46:34.719Z,98869.00
2018-06-14T16:49:04.334Z,98868.47
2018-06-14T16:51:34.003Z,98870.02
2018-06-14T16:54:03.341Z,98863.04
2018-06-14T16:56:32.683Z,98875.66
2018-06-14T16:59:02.067Z,98866.31
2018-06-14T17:01:31.858Z,98868.77
2018-06-14T17:04:01.405Z,98865.64
2018-06-14T17:06:30.721Z,98870.01
2018-06-14T17:09:00.580Z,98872.63
2018-06-14T17:11:30.532Z,98870.57
2018-06-14T17:13:59.897Z,98868.44
2018-06-14T17:16:29.214Z,98865.94
2018-06-14T17:18:59.470Z,98861.50
2018-06-14T17:21:29.271Z,98868.50
2018-06-14T17:23:58.904Z,98866.19
2018-06-14T17:26:28.946Z,98868.70
2018-06-14T17:28:58.907Z,98874.81
2018-06-14T17:31:28.189Z,98871.50
2018-06-14T17:33:57.899Z,98873.11
2018-06-14T17:36:27.500Z,98870.12
2018-06-14T17:38:56.847Z,98876.97
2018-06-14T17:41:27.314Z,98878.91
2018-06-14T17:43:56.938Z,98885.88
2018-06-14T17:46:26.277Z,98890.43
2018-06-14T17:48:56.672Z,98892.22
2018-06-14T17:51:26.001Z,98893.36
2018-06-14T17:53:55.627Z,98897.77
2018-06-14T17:56:25.316Z,98898.83
2018-06-14T17:58:54.677Z,98907.02
2018-06-14T18:01:23.979Z,98903.84
2018-06-14T18:03:53.380Z,98911.61
2018-06-14T18:06:23.710Z,98906.92
2018-06-14T18:08:53.487Z,98910.94
2018-06-14T18:11:22.877Z,98912.63
2018-06-14T18:13:52.429Z,98919.35
2018-06-14T18:16:21.723Z,98919.70
2018-06-14T18:18:51.126Z,98913.80
2018-06-14T18:21:21.364Z,98919.03
2018-06-14T18:23:50.686Z,98921.19
2018-06-14T18:26:20.465Z,98923.35
2018-06-14T18:28:50.533Z,98927.09
2018-06-14T18:31:20.481Z,98935.28
2018-06-14T18:33:49.848Z,98932.58
2018-06-14T18:36:19.190Z,98930.08
2018-06-14T18:38:49.780Z,98936.95
2018-06-14T18:41:19.102Z,98931.08
2018-06-14T18:43:48.968Z,98935.97
2018-06-14T18:46:18.669Z,98940.13
2018-06-14T18:48:48.233Z,98937.12
2018-06-14T18:51:17.556Z,98942.97
2018-06-14T18:53:48.044Z,98945.53
2018-06-14T18:56:17.769Z,98937.30
2018-06-14T18:58:48.118Z,98937.97
2018-06-14T19:01:17.435Z,98944.14
2018-06-14T19:03:47.096Z,98947.17
2018-06-14T19:06:16.419Z,98950.00
2018-06-14T19:08:45.753Z,98947.34
2018-06-14T19:11:15.106Z,98959.27
2018-06-14T19:13:44.729Z,98958.94
2018-06-14T19:16:14.465Z,98969.19
2018-06-14T19:18:44.374Z,98971.04
2018-06-14T19:21:13.960Z,98967.48
2018-06-14T19:23:43.686Z,98970.37
2018-06-14T19:26:13.413Z,98973.42
2018-06-14T19:28:42.748Z,98972.55
2018-06-14T19:31:12.341Z,98973.22
2018-06-14T19:33:41.904Z,98974.28
2018-06-14T19:36:11.215Z,98977.81
2018-06-14T19:38:41.074Z,98979.17
2018-06-14T19:41:10.629Z,98989.48
2018-06-14T19:43:40.029Z,98984.81
2018-06-14T19:46:09.453Z,98997.72
2018-06-14T19:48:38.809Z,99006.27
2018-06-14T19:51:08.125Z,99011.64
2018-06-14T19:53:37.452Z,99011.73
2018-06-14T19:56:06.776Z,99020.61
2018-06-14T19:58:36.568Z,99028.45
2018-06-14T20:01:06.189Z,99030.88
2018-06-14T20:03:35.776Z,99036.48
2018-06-14T20:06:05.473Z,99036.86
2018-06-14T20:08:35.300Z,99040.13
2018-06-14T20:11:04.619Z,99044.94
2018-06-14T20:13:34.402Z,99047.78
2018-06-14T20:16:04.011Z,99052.14
2018-06-14T20:18:33.699Z,99058.59
2018-06-14T20:21:03.845Z,99051.36
2018-06-14T20:23:33.217Z,99049.68
2018-06-14T20:26:06.056Z,99055.68
2018-06-14T20:28:35.531Z,99054.75
2018-06-14T20:31:05.153Z,99057.78
2018-06-14T20:33:34.506Z,99055.69
2018-06-14T20:36:03.864Z,99059.20
2018-06-14T20:38:35.613Z,99056.93
2018-06-14T20:41:05.564Z,99052.58
2018-06-14T20:43:35.366Z,99061.54
2018-06-14T20:46:04.755Z,99063.92
2018-06-14T20:48:34.566Z,99063.63
2018-06-14T20:51:04.220Z,99069.41
2018-06-14T20:53:33.663Z,99071.02
2018-06-14T20:56:03.621Z,99073.77
2018-06-14T20:58:32.966Z,99075.17
2018-06-14T21:01:03.200Z,99076.73
2018-06-14T21:03:32.548Z,99085.59
2018-06-14T21:06:02.303Z,99090.33
2018-06-14T21:08:31.638Z,99090.06
2018-06-14T21:11:01.015Z,99084.47
2018-06-14T21:13:30.437Z,99080.31
2018-06-14T21:16:00.674Z,99086.31
2018-06-14T21:18:30.351Z,99089.03
2018-06-14T21:20:59.744Z,99091.56
2018-06-14T21:23:29.061Z,99099.19
2018-06-14T21:25:58.434Z,99100.44
2018-06-14T21:28:28.176Z,99105.02
2018-06-14T21:30:58.147Z,99102.34
2018-06-14T21:33:27.912Z,99102.14
2018-06-14T21:35:57.231Z,99094.48
2018-06-14T21:38:26.550Z,99090.17
2018-06-14T21:40:56.705Z,99092.94
2018-06-14T21:43:26.271Z,99094.11
2018-06-14T21:45:56.426Z,99095.27
2018-06-14T21:48:26.601Z,99088.08
2018-06-14T21:50:57.185Z,99095.31
2018-06-14T21:53:26.476Z,99094.67
2018-06-14T21:55:55.872Z,99099.13
2018-06-14T21:58:25.520Z,99097.42
2018-06-14T22:00:55.180Z,99093.13
2018-06-14T22:03:29.968Z,99101.15
2018-06-14T22:05:59.285Z,99110.22
2018-06-14T22:08:28.608Z,99107.55
2018-06-14T22:10:57.982Z,99112.55
2018-06-14T22:13:27.664Z,99116.37
2018-06-14T22:15:57.334Z,99121.02
2018-06-14T22:18:26.631Z,99110.77
2018-06-14T22:20:56.026Z,99112.97
2018-06-14T22:23:26.327Z,99116.15
2018-06-14T22:25:55.684Z,99115.30
2018-06-14T22:28:25.823Z,99115.09
2018-06-14T22:30:55.157Z,99115.39
2018-06-14T22:33:36.292Z,99120.88
2018-06-14T22:36:05.668Z,99121.91
2018-06-14T22:38:35.813Z,99122.26
2018-06-14T22:41:05.471Z,99121.06
2018-06-14T22:43:36.355Z,99117.89
2018-06-14T22:46:05.923Z,99116.67
2018-06-14T22:48:35.291Z,99115.36
2018-06-14T22:51:13.830Z,99121.53
2018-06-14T22:53:43.127Z,99117.20
2018-06-14T22:56:12.547Z,99115.65
2018-06-14T22:58:42.724Z,99113.91
2018-06-14T23:01:31.083Z,99103.59
2018-06-14T23:04:01.241Z,99101.10
2018-06-14T23:06:31.023Z,99099.41
2018-06-14T23:11:19.223Z,99100.26
2018-06-14T23:13:49.061Z,99101.31
2018-06-14T23:16:18.820Z,99099.23
2018-06-14T23:18:48.457Z,99102.91
2018-06-14T23:21:19.185Z,99100.91
2018-06-14T23:23:49.079Z,99107.05
2018-06-14T23:26:19.456Z,99097.34
2018-06-14T23:28:48.772Z,99102.56
2018-06-14T23:31:18.127Z,99105.19
2018-06-14T23:33:47.793Z,99100.87
2018-06-14T23:36:17.123Z,99100.72
2018-06-14T23:38:46.726Z,99107.55
2018-06-14T23:41:16.420Z,99107.84
2018-06-14T23:43:47.880Z,99110.58
2018-06-14T23:46:17.902Z,99108.25
2018-06-14T23:48:47.211Z,99111.28
2018-06-14T23:51:16.546Z,99108.46
2018-06-14T23:53:46.112Z,99116.50
2018-06-14T23:56:16.527Z,99112.29
2018-06-14T23:58:45.853Z,99109.61
